sensor_id;sensor_type;location;lat;lon;timestamp;temperature;humidity
12901;DHT22;6518;50.930;5.344;2023-02-26T00:02:04;1.50;76.40
12901;DHT22;6518;50.930;5.344;2023-02-26T00:04:31;1.50;76.50
12901;DHT22;6518;50.930;5.344;2023-02-26T00:06:58;1.50;76.40
12901;DHT22;6518;50.930;5.344;2023-02-26T00:09:25;1.40;76.50
12901;DHT22;6518;50.930;5.344;2023-02-26T00:11:52;1.40;76.70
12901;DHT22;6518;50.930;5.344;2023-02-26T00:14:19;1.40;76.80
12901;DHT22;6518;50.930;5.344;2023-02-26T00:16:52;1.40;76.80
12901;DHT22;6518;50.930;5.344;2023-02-26T00:19:20;1.30;77.10
12901;DHT22;6518;50.930;5.344;2023-02-26T00:21:48;1.30;77.10
12901;DHT22;6518;50.930;5.344;2023-02-26T00:24:15;1.30;77.10
12901;DHT22;6518;50.930;5.344;2023-02-26T00:26:41;1.20;77.30
12901;DHT22;6518;50.930;5.344;2023-02-26T00:29:09;1.20;78.40
12901;DHT22;6518;50.930;5.344;2023-02-26T00:31:36;1.20;77.60
12901;DHT22;6518;50.930;5.344;2023-02-26T00:34:05;1.20;77.60
12901;DHT22;6518;50.930;5.344;2023-02-26T00:36:39;1.20;77.70
12901;DHT22;6518;50.930;5.344;2023-02-26T00:39:18;1.20;78.10
12901;DHT22;6518;50.930;5.344;2023-02-26T00:41:46;1.20;78.20
12901;DHT22;6518;50.930;5.344;2023-02-26T00:44:14;1.10;78.30
12901;DHT22;6518;50.930;5.344;2023-02-26T00:46:44;1.10;78.50
12901;DHT22;6518;50.930;5.344;2023-02-26T00:49:24;1.10;78.80
12901;DHT22;6518;50.930;5.344;2023-02-26T00:51:55;1.10;78.90
12901;DHT22;6518;50.930;5.344;2023-02-26T00:54:23;1.10;78.90
12901;DHT22;6518;50.930;5.344;2023-02-26T00:56:52;1.10;78.90
12901;DHT22;6518;50.930;5.344;2023-02-26T00:59:19;1.10;79.20
12901;DHT22;6518;50.930;5.344;2023-02-26T01:01:46;1.10;79.10
12901;DHT22;6518;50.930;5.344;2023-02-26T01:04:15;1.10;79.30
12901;DHT22;6518;50.930;5.344;2023-02-26T01:06:45;1.10;79.40
12901;DHT22;6518;50.930;5.344;2023-02-26T01:09:19;1.10;79.50
12901;DHT22;6518;50.930;5.344;2023-02-26T01:11:49;1.10;79.50
12901;DHT22;6518;50.930;5.344;2023-02-26T01:14:16;1.00;79.40
12901;DHT22;6518;50.930;5.344;2023-02-26T01:16:49;1.00;79.80
12901;DHT22;6518;50.930;5.344;2023-02-26T01:19:25;1.00;79.70
12901;DHT22;6518;50.930;5.344;2023-02-26T01:21:59;1.00;79.80
12901;DHT22;6518;50.930;5.344;2023-02-26T01:24:29;1.00;80.00
12901;DHT22;6518;50.930;5.344;2023-02-26T01:26:56;1.00;80.20
12901;DHT22;6518;50.930;5.344;2023-02-26T01:29:24;1.00;80.20
12901;DHT22;6518;50.930;5.344;2023-02-26T01:31:55;1.00;80.40
12901;DHT22;6518;50.930;5.344;2023-02-26T01:34:27;0.90;81.50
12901;DHT22;6518;50.930;5.344;2023-02-26T01:37:01;1.00;81.00
12901;DHT22;6518;50.930;5.344;2023-02-26T01:39:35;1.00;80.90
12901;DHT22;6518;50.930;5.344;2023-02-26T01:42:11;1.00;80.90
12901;DHT22;6518;50.930;5.344;2023-02-26T01:44:41;1.00;81.10
12901;DHT22;6518;50.930;5.344;2023-02-26T01:47:17;0.90;81.20
12901;DHT22;6518;50.930;5.344;2023-02-26T01:49:46;1.00;81.20
12901;DHT22;6518;50.930;5.344;2023-02-26T01:55:16;1.00;81.20
12901;DHT22;6518;50.930;5.344;2023-02-26T01:57:44;1.00;81.10
12901;DHT22;6518;50.930;5.344;2023-02-26T02:00:12;1.00;81.20
12901;DHT22;6518;50.930;5.344;2023-02-26T02:02:39;1.00;81.60
12901;DHT22;6518;50.930;5.344;2023-02-26T02:05:12;1.00;81.80
12901;DHT22;6518;50.930;5.344;2023-02-26T02:07:42;0.90;81.80
12901;DHT22;6518;50.930;5.344;2023-02-26T02:10:10;1.00;81.80
12901;DHT22;6518;50.930;5.344;2023-02-26T02:12:42;1.00;81.80
12901;DHT22;6518;50.930;5.344;2023-02-26T02:15:17;1.00;81.90
12901;DHT22;6518;50.930;5.344;2023-02-26T02:17:49;1.00;81.90
12901;DHT22;6518;50.930;5.344;2023-02-26T02:20:51;0.90;82.10
12901;DHT22;6518;50.930;5.344;2023-02-26T02:23:29;0.90;82.30
12901;DHT22;6518;50.930;5.344;2023-02-26T02:26:27;0.90;82.60
12901;DHT22;6518;50.930;5.344;2023-02-26T02:31:53;0.80;83.10
12901;DHT22;6518;50.930;5.344;2023-02-26T02:34:23;0.70;83.50
12901;DHT22;6518;50.930;5.344;2023-02-26T02:36:55;0.70;83.60
12901;DHT22;6518;50.930;5.344;2023-02-26T02:39:27;0.80;83.70
12901;DHT22;6518;50.930;5.344;2023-02-26T02:41:57;0.80;83.60
12901;DHT22;6518;50.930;5.344;2023-02-26T02:44:28;0.80;83.70
12901;DHT22;6518;50.930;5.344;2023-02-26T02:46:59;0.90;83.60
12901;DHT22;6518;50.930;5.344;2023-02-26T02:49:30;0.90;83.50
12901;DHT22;6518;50.930;5.344;2023-02-26T02:52:00;0.90;83.60
12901;DHT22;6518;50.930;5.344;2023-02-26T02:54:33;0.90;83.60
12901;DHT22;6518;50.930;5.344;2023-02-26T02:57:03;0.90;83.30
12901;DHT22;6518;50.930;5.344;2023-02-26T02:59:33;0.90;83.50
12901;DHT22;6518;50.930;5.344;2023-02-26T03:02:09;0.90;83.60
12901;DHT22;6518;50.930;5.344;2023-02-26T03:04:37;0.90;83.70
12901;DHT22;6518;50.930;5.344;2023-02-26T03:07:05;0.90;83.30
12901;DHT22;6518;50.930;5.344;2023-02-26T03:09:32;1.00;83.40
12901;DHT22;6518;50.930;5.344;2023-02-26T03:11:59;0.90;83.40
12901;DHT22;6518;50.930;5.344;2023-02-26T03:14:26;0.90;83.40
12901;DHT22;6518;50.930;5.344;2023-02-26T03:17:10;0.90;83.40
12901;DHT22;6518;50.930;5.344;2023-02-26T03:19:53;0.90;83.60
12901;DHT22;6518;50.930;5.344;2023-02-26T03:22:31;0.90;83.80
12901;DHT22;6518;50.930;5.344;2023-02-26T03:25:06;0.90;84.50
12901;DHT22;6518;50.930;5.344;2023-02-26T03:27:38;0.90;83.90
12901;DHT22;6518;50.930;5.344;2023-02-26T03:30:13;0.90;84.00
12901;DHT22;6518;50.930;5.344;2023-02-26T03:32:46;0.90;85.00
12901;DHT22;6518;50.930;5.344;2023-02-26T03:35:18;0.90;84.10
12901;DHT22;6518;50.930;5.344;2023-02-26T03:37:49;0.90;84.30
12901;DHT22;6518;50.930;5.344;2023-02-26T03:40:22;0.80;84.50
12901;DHT22;6518;50.930;5.344;2023-02-26T03:42:54;0.80;84.50
12901;DHT22;6518;50.930;5.344;2023-02-26T03:45:25;0.80;84.60
12901;DHT22;6518;50.930;5.344;2023-02-26T03:47:55;0.80;84.60
12901;DHT22;6518;50.930;5.344;2023-02-26T03:50:26;0.80;84.70
12901;DHT22;6518;50.930;5.344;2023-02-26T03:52:57;0.80;84.80
12901;DHT22;6518;50.930;5.344;2023-02-26T03:55:28;0.70;84.90
12901;DHT22;6518;50.930;5.344;2023-02-26T03:57:56;0.80;85.00
12901;DHT22;6518;50.930;5.344;2023-02-26T04:00:23;0.80;85.10
12901;DHT22;6518;50.930;5.344;2023-02-26T04:02:58;0.70;85.10
12901;DHT22;6518;50.930;5.344;2023-02-26T04:05:27;0.70;85.20
12901;DHT22;6518;50.930;5.344;2023-02-26T04:07:56;0.70;85.40
12901;DHT22;6518;50.930;5.344;2023-02-26T04:10:28;0.70;85.80
12901;DHT22;6518;50.930;5.344;2023-02-26T04:12:58;0.70;85.90
12901;DHT22;6518;50.930;5.344;2023-02-26T04:15:25;0.60;86.00
12901;DHT22;6518;50.930;5.344;2023-02-26T04:17:52;0.60;86.20
12901;DHT22;6518;50.930;5.344;2023-02-26T04:20:20;0.60;86.40
12901;DHT22;6518;50.930;5.344;2023-02-26T04:22:47;0.60;86.40
12901;DHT22;6518;50.930;5.344;2023-02-26T04:25:14;0.60;86.50
12901;DHT22;6518;50.930;5.344;2023-02-26T04:27:40;0.60;86.60
12901;DHT22;6518;50.930;5.344;2023-02-26T04:30:08;0.50;86.70
12901;DHT22;6518;50.930;5.344;2023-02-26T04:32:35;0.60;86.80
12901;DHT22;6518;50.930;5.344;2023-02-26T04:35:02;0.60;86.80
12901;DHT22;6518;50.930;5.344;2023-02-26T04:37:31;0.50;86.80
12901;DHT22;6518;50.930;5.344;2023-02-26T04:39:57;0.50;87.10
12901;DHT22;6518;50.930;5.344;2023-02-26T04:42:24;0.40;86.80
12901;DHT22;6518;50.930;5.344;2023-02-26T04:44:51;0.40;86.90
12901;DHT22;6518;50.930;5.344;2023-02-26T04:47:18;0.40;87.10
12901;DHT22;6518;50.930;5.344;2023-02-26T04:49:45;0.40;86.60
12901;DHT22;6518;50.930;5.344;2023-02-26T04:52:12;0.40;86.70
12901;DHT22;6518;50.930;5.344;2023-02-26T04:54:40;0.40;86.70
12901;DHT22;6518;50.930;5.344;2023-02-26T04:57:06;0.40;86.70
12901;DHT22;6518;50.930;5.344;2023-02-26T04:59:33;0.40;86.70
12901;DHT22;6518;50.930;5.344;2023-02-26T05:02:00;0.40;86.50
12901;DHT22;6518;50.930;5.344;2023-02-26T05:04:27;0.40;86.50
12901;DHT22;6518;50.930;5.344;2023-02-26T05:06:53;0.30;86.40
12901;DHT22;6518;50.930;5.344;2023-02-26T05:09:20;0.30;86.50
12901;DHT22;6518;50.930;5.344;2023-02-26T05:11:49;0.30;86.40
12901;DHT22;6518;50.930;5.344;2023-02-26T05:14:16;0.30;86.30
12901;DHT22;6518;50.930;5.344;2023-02-26T05:16:43;0.40;86.10
12901;DHT22;6518;50.930;5.344;2023-02-26T05:19:10;0.40;86.00
12901;DHT22;6518;50.930;5.344;2023-02-26T05:21:36;0.40;85.80
12901;DHT22;6518;50.930;5.344;2023-02-26T05:24:04;0.40;85.80
12901;DHT22;6518;50.930;5.344;2023-02-26T05:26:31;0.40;85.60
12901;DHT22;6518;50.930;5.344;2023-02-26T05:28:59;0.30;85.40
12901;DHT22;6518;50.930;5.344;2023-02-26T05:31:26;0.30;85.50
12901;DHT22;6518;50.930;5.344;2023-02-26T05:33:54;0.30;85.30
12901;DHT22;6518;50.930;5.344;2023-02-26T05:36:21;0.30;85.40
12901;DHT22;6518;50.930;5.344;2023-02-26T05:38:48;0.30;85.50
12901;DHT22;6518;50.930;5.344;2023-02-26T05:41:14;0.20;85.40
12901;DHT22;6518;50.930;5.344;2023-02-26T05:43:41;0.20;85.30
12901;DHT22;6518;50.930;5.344;2023-02-26T05:46:10;0.20;85.40
12901;DHT22;6518;50.930;5.344;2023-02-26T05:48:37;0.20;85.30
12901;DHT22;6518;50.930;5.344;2023-02-26T05:51:04;0.10;85.20
12901;DHT22;6518;50.930;5.344;2023-02-26T05:53:31;0.10;85.20
12901;DHT22;6518;50.930;5.344;2023-02-26T05:55:58;0.10;85.10
12901;DHT22;6518;50.930;5.344;2023-02-26T05:58:25;0.10;85.10
12901;DHT22;6518;50.930;5.344;2023-02-26T06:00:52;0.10;84.80
12901;DHT22;6518;50.930;5.344;2023-02-26T06:03:20;0.00;84.60
12901;DHT22;6518;50.930;5.344;2023-02-26T06:05:47;0.00;84.70
12901;DHT22;6518;50.930;5.344;2023-02-26T06:08:14;0.00;84.60
12901;DHT22;6518;50.930;5.344;2023-02-26T06:10:41;0.00;84.70
12901;DHT22;6518;50.930;5.344;2023-02-26T06:13:09;0.00;84.60
12901;DHT22;6518;50.930;5.344;2023-02-26T06:15:36;0.00;84.70
12901;DHT22;6518;50.930;5.344;2023-02-26T06:18:03;0.00;84.80
12901;DHT22;6518;50.930;5.344;2023-02-26T06:20:31;0.00;84.80
12901;DHT22;6518;50.930;5.344;2023-02-26T06:22:58;0.00;84.70
12901;DHT22;6518;50.930;5.344;2023-02-26T06:25:25;0.00;84.70
12901;DHT22;6518;50.930;5.344;2023-02-26T06:27:52;0.00;84.70
12901;DHT22;6518;50.930;5.344;2023-02-26T06:30:19;0.00;84.70
12901;DHT22;6518;50.930;5.344;2023-02-26T06:32:48;0.00;84.70
12901;DHT22;6518;50.930;5.344;2023-02-26T06:35:15;0.00;84.70
12901;DHT22;6518;50.930;5.344;2023-02-26T06:37:43;-0.10;84.70
12901;DHT22;6518;50.930;5.344;2023-02-26T06:40:11;0.00;84.80
12901;DHT22;6518;50.930;5.344;2023-02-26T06:42:39;0.20;84.80
12901;DHT22;6518;50.930;5.344;2023-02-26T06:45:06;0.00;84.60
12901;DHT22;6518;50.930;5.344;2023-02-26T06:47:33;0.00;84.50
12901;DHT22;6518;50.930;5.344;2023-02-26T06:50:00;0.00;84.30
12901;DHT22;6518;50.930;5.344;2023-02-26T06:52:28;0.00;84.50
12901;DHT22;6518;50.930;5.344;2023-02-26T06:54:56;0.00;84.40
12901;DHT22;6518;50.930;5.344;2023-02-26T06:57:23;0.10;84.20
12901;DHT22;6518;50.930;5.344;2023-02-26T06:59:50;0.10;83.80
12901;DHT22;6518;50.930;5.344;2023-02-26T07:02:19;0.20;83.80
12901;DHT22;6518;50.930;5.344;2023-02-26T07:04:46;0.20;83.60
12901;DHT22;6518;50.930;5.344;2023-02-26T07:07:13;0.20;83.40
12901;DHT22;6518;50.930;5.344;2023-02-26T07:09:40;0.20;84.20
12901;DHT22;6518;50.930;5.344;2023-02-26T07:12:08;0.30;83.30
12901;DHT22;6518;50.930;5.344;2023-02-26T07:14:36;0.30;83.00
12901;DHT22;6518;50.930;5.344;2023-02-26T07:17:03;0.30;82.90
12901;DHT22;6518;50.930;5.344;2023-02-26T07:19:30;0.30;83.00
12901;DHT22;6518;50.930;5.344;2023-02-26T07:21:57;0.30;82.80
12901;DHT22;6518;50.930;5.344;2023-02-26T07:24:24;0.30;82.90
12901;DHT22;6518;50.930;5.344;2023-02-26T07:26:50;0.30;82.60
12901;DHT22;6518;50.930;5.344;2023-02-26T07:29:19;0.40;82.70
12901;DHT22;6518;50.930;5.344;2023-02-26T07:31:46;0.40;82.30
12901;DHT22;6518;50.930;5.344;2023-02-26T07:34:12;0.40;82.40
12901;DHT22;6518;50.930;5.344;2023-02-26T07:36:39;0.50;82.10
12901;DHT22;6518;50.930;5.344;2023-02-26T07:39:06;0.50;81.90
12901;DHT22;6518;50.930;5.344;2023-02-26T07:41:33;0.60;81.70
12901;DHT22;6518;50.930;5.344;2023-02-26T07:43:59;0.60;81.40
12901;DHT22;6518;50.930;5.344;2023-02-26T07:46:28;0.60;81.20
12901;DHT22;6518;50.930;5.344;2023-02-26T07:48:55;0.70;81.20
12901;DHT22;6518;50.930;5.344;2023-02-26T07:51:22;0.70;80.90
12901;DHT22;6518;50.930;5.344;2023-02-26T07:53:48;0.80;80.60
12901;DHT22;6518;50.930;5.344;2023-02-26T07:56:15;0.80;80.60
12901;DHT22;6518;50.930;5.344;2023-02-26T07:58:42;0.90;80.20
12901;DHT22;6518;50.930;5.344;2023-02-26T08:01:09;0.90;80.10
12901;DHT22;6518;50.930;5.344;2023-02-26T08:03:37;0.90;80.00
12901;DHT22;6518;50.930;5.344;2023-02-26T08:06:04;1.00;79.90
12901;DHT22;6518;50.930;5.344;2023-02-26T08:08:32;1.00;79.70
12901;DHT22;6518;50.930;5.344;2023-02-26T08:11:00;1.00;79.40
12901;DHT22;6518;50.930;5.344;2023-02-26T08:13:27;1.00;79.20
12901;DHT22;6518;50.930;5.344;2023-02-26T08:15:53;1.10;79.10
12901;DHT22;6518;50.930;5.344;2023-02-26T08:18:20;1.10;79.00
12901;DHT22;6518;50.930;5.344;2023-02-26T08:20:49;1.20;78.80
12901;DHT22;6518;50.930;5.344;2023-02-26T08:23:16;1.30;78.70
12901;DHT22;6518;50.930;5.344;2023-02-26T08:25:43;1.30;78.40
12901;DHT22;6518;50.930;5.344;2023-02-26T08:28:10;1.30;78.20
12901;DHT22;6518;50.930;5.344;2023-02-26T08:30:37;1.30;78.00
12901;DHT22;6518;50.930;5.344;2023-02-26T08:33:04;1.40;77.90
12901;DHT22;6518;50.930;5.344;2023-02-26T08:35:31;1.40;77.80
12901;DHT22;6518;50.930;5.344;2023-02-26T08:37:59;1.40;77.60
12901;DHT22;6518;50.930;5.344;2023-02-26T08:40:26;1.40;78.00
12901;DHT22;6518;50.930;5.344;2023-02-26T08:42:52;1.50;77.60
12901;DHT22;6518;50.930;5.344;2023-02-26T08:45:19;1.50;77.50
12901;DHT22;6518;50.930;5.344;2023-02-26T08:47:46;1.60;77.40
12901;DHT22;6518;50.930;5.344;2023-02-26T08:50:13;1.70;77.40
12901;DHT22;6518;50.930;5.344;2023-02-26T08:52:40;1.80;77.10
12901;DHT22;6518;50.930;5.344;2023-02-26T08:55:09;1.80;76.80
12901;DHT22;6518;50.930;5.344;2023-02-26T08:57:35;1.90;76.70
12901;DHT22;6518;50.930;5.344;2023-02-26T09:00:03;1.90;76.20
12901;DHT22;6518;50.930;5.344;2023-02-26T09:02:34;2.00;76.30
12901;DHT22;6518;50.930;5.344;2023-02-26T09:05:01;2.10;76.60
12901;DHT22;6518;50.930;5.344;2023-02-26T09:07:28;2.10;75.20
12901;DHT22;6518;50.930;5.344;2023-02-26T09:09:55;2.10;75.20
12901;DHT22;6518;50.930;5.344;2023-02-26T09:12:23;2.10;74.70
12901;DHT22;6518;50.930;5.344;2023-02-26T09:14:50;2.10;75.10
12901;DHT22;6518;50.930;5.344;2023-02-26T09:17:17;2.20;75.30
12901;DHT22;6518;50.930;5.344;2023-02-26T09:19:44;2.20;75.40
12901;DHT22;6518;50.930;5.344;2023-02-26T09:22:10;2.30;74.30
12901;DHT22;6518;50.930;5.344;2023-02-26T09:24:37;2.30;74.60
12901;DHT22;6518;50.930;5.344;2023-02-26T09:27:04;2.40;74.60
12901;DHT22;6518;50.930;5.344;2023-02-26T09:29:32;2.50;74.10
12901;DHT22;6518;50.930;5.344;2023-02-26T09:31:59;2.50;73.50
12901;DHT22;6518;50.930;5.344;2023-02-26T09:34:26;2.50;73.20
12901;DHT22;6518;50.930;5.344;2023-02-26T09:36:53;2.60;72.90
12901;DHT22;6518;50.930;5.344;2023-02-26T09:39:20;2.60;73.00
12901;DHT22;6518;50.930;5.344;2023-02-26T09:41:52;2.60;72.50
12901;DHT22;6518;50.930;5.344;2023-02-26T09:44:22;2.70;72.30
12901;DHT22;6518;50.930;5.344;2023-02-26T09:47:00;2.80;72.30
12901;DHT22;6518;50.930;5.344;2023-02-26T09:49:34;2.60;71.70
12901;DHT22;6518;50.930;5.344;2023-02-26T09:52:10;2.60;72.00
12901;DHT22;6518;50.930;5.344;2023-02-26T09:54:42;2.50;72.00
12901;DHT22;6518;50.930;5.344;2023-02-26T09:57:17;2.90;72.60
12901;DHT22;6518;50.930;5.344;2023-02-26T09:59:44;2.60;72.30
12901;DHT22;6518;50.930;5.344;2023-02-26T10:02:17;2.60;72.10
12901;DHT22;6518;50.930;5.344;2023-02-26T10:04:50;2.70;72.20
12901;DHT22;6518;50.930;5.344;2023-02-26T10:07:26;2.70;72.30
12901;DHT22;6518;50.930;5.344;2023-02-26T10:10:06;2.70;72.40
12901;DHT22;6518;50.930;5.344;2023-02-26T10:12:36;2.80;72.40
12901;DHT22;6518;50.930;5.344;2023-02-26T10:15:08;2.70;72.50
12901;DHT22;6518;50.930;5.344;2023-02-26T10:17:44;2.80;72.50
12901;DHT22;6518;50.930;5.344;2023-02-26T10:20:18;2.80;72.70
12901;DHT22;6518;50.930;5.344;2023-02-26T10:22:54;2.90;72.50
12901;DHT22;6518;50.930;5.344;2023-02-26T10:25:25;3.10;71.80
12901;DHT22;6518;50.930;5.344;2023-02-26T10:27:59;3.20;71.90
12901;DHT22;6518;50.930;5.344;2023-02-26T10:30:33;3.40;70.70
12901;DHT22;6518;50.930;5.344;2023-02-26T10:33:11;3.60;70.10
12901;DHT22;6518;50.930;5.344;2023-02-26T10:35:46;3.80;67.80
12901;DHT22;6518;50.930;5.344;2023-02-26T10:38:19;3.90;65.30
12901;DHT22;6518;50.930;5.344;2023-02-26T10:40:49;3.90;62.00
12901;DHT22;6518;50.930;5.344;2023-02-26T10:43:21;4.00;60.90
12901;DHT22;6518;50.930;5.344;2023-02-26T10:46:02;4.00;61.30
12901;DHT22;6518;50.930;5.344;2023-02-26T10:48:42;4.00;61.00
12901;DHT22;6518;50.930;5.344;2023-02-26T10:51:13;3.90;60.20
12901;DHT22;6518;50.930;5.344;2023-02-26T10:53:46;3.90;59.70
12901;DHT22;6518;50.930;5.344;2023-02-26T10:56:17;4.00;59.40
12901;DHT22;6518;50.930;5.344;2023-02-26T10:58:46;4.00;59.40
12901;DHT22;6518;50.930;5.344;2023-02-26T11:01:16;3.90;59.40
12901;DHT22;6518;50.930;5.344;2023-02-26T11:03:46;3.80;59.70
12901;DHT22;6518;50.930;5.344;2023-02-26T11:06:18;3.80;60.10
12901;DHT22;6518;50.930;5.344;2023-02-26T11:08:48;3.90;59.50
12901;DHT22;6518;50.930;5.344;2023-02-26T11:11:36;4.00;59.30
12901;DHT22;6518;50.930;5.344;2023-02-26T11:14:03;4.00;59.60
12901;DHT22;6518;50.930;5.344;2023-02-26T11:16:30;4.00;59.80
12901;DHT22;6518;50.930;5.344;2023-02-26T11:19:00;3.90;60.10
12901;DHT22;6518;50.930;5.344;2023-02-26T11:21:29;3.90;59.90
12901;DHT22;6518;50.930;5.344;2023-02-26T11:24:00;3.80;59.50
12901;DHT22;6518;50.930;5.344;2023-02-26T11:26:31;3.80;59.60
12901;DHT22;6518;50.930;5.344;2023-02-26T11:28:59;3.80;59.30
12901;DHT22;6518;50.930;5.344;2023-02-26T11:31:27;3.90;59.80
12901;DHT22;6518;50.930;5.344;2023-02-26T11:34:00;3.90;59.10
12901;DHT22;6518;50.930;5.344;2023-02-26T11:36:30;4.00;59.70
12901;DHT22;6518;50.930;5.344;2023-02-26T11:39:01;4.10;59.10
12901;DHT22;6518;50.930;5.344;2023-02-26T11:41:28;4.20;58.60
12901;DHT22;6518;50.930;5.344;2023-02-26T11:44:00;4.30;58.50
12901;DHT22;6518;50.930;5.344;2023-02-26T11:46:28;4.40;58.40
12901;DHT22;6518;50.930;5.344;2023-02-26T11:48:57;4.40;58.10
12901;DHT22;6518;50.930;5.344;2023-02-26T11:51:28;4.50;58.00
12901;DHT22;6518;50.930;5.344;2023-02-26T11:53:56;4.50;57.60
12901;DHT22;6518;50.930;5.344;2023-02-26T11:56:29;4.50;57.40
12901;DHT22;6518;50.930;5.344;2023-02-26T11:58:59;4.50;57.60
12901;DHT22;6518;50.930;5.344;2023-02-26T12:01:28;4.50;57.90
12901;DHT22;6518;50.930;5.344;2023-02-26T12:03:58;4.50;57.60
12901;DHT22;6518;50.930;5.344;2023-02-26T12:06:25;4.40;57.70
12901;DHT22;6518;50.930;5.344;2023-02-26T12:08:53;4.50;57.90
12901;DHT22;6518;50.930;5.344;2023-02-26T12:11:45;4.50;57.30
12901;DHT22;6518;50.930;5.344;2023-02-26T12:14:39;4.40;57.50
12901;DHT22;6518;50.930;5.344;2023-02-26T12:20:09;4.30;57.50
12901;DHT22;6518;50.930;5.344;2023-02-26T12:22:48;4.40;57.90
12901;DHT22;6518;50.930;5.344;2023-02-26T12:28:32;4.30;57.30
12901;DHT22;6518;50.930;5.344;2023-02-26T12:31:14;4.30;57.30
12901;DHT22;6518;50.930;5.344;2023-02-26T12:33:54;4.40;57.50
12901;DHT22;6518;50.930;5.344;2023-02-26T12:36:31;4.40;57.40
12901;DHT22;6518;50.930;5.344;2023-02-26T12:39:13;4.40;57.70
12901;DHT22;6518;50.930;5.344;2023-02-26T12:41:56;4.40;57.10
12901;DHT22;6518;50.930;5.344;2023-02-26T12:44:45;4.40;56.80
12901;DHT22;6518;50.930;5.344;2023-02-26T12:47:28;4.40;56.90
12901;DHT22;6518;50.930;5.344;2023-02-26T12:50:18;4.40;57.40
12901;DHT22;6518;50.930;5.344;2023-02-26T12:53:11;4.50;57.50
12901;DHT22;6518;50.930;5.344;2023-02-26T12:55:48;4.50;57.50
12901;DHT22;6518;50.930;5.344;2023-02-26T12:58:38;4.40;57.70
12901;DHT22;6518;50.930;5.344;2023-02-26T13:01:28;4.40;57.10
12901;DHT22;6518;50.930;5.344;2023-02-26T13:04:15;4.40;55.90
12901;DHT22;6518;50.930;5.344;2023-02-26T13:07:00;4.30;55.90
12901;DHT22;6518;50.930;5.344;2023-02-26T13:09:44;4.40;54.60
12901;DHT22;6518;50.930;5.344;2023-02-26T13:12:23;4.50;53.70
12901;DHT22;6518;50.930;5.344;2023-02-26T13:14:59;4.60;53.90
12901;DHT22;6518;50.930;5.344;2023-02-26T13:17:34;4.70;53.80
12901;DHT22;6518;50.930;5.344;2023-02-26T13:20:10;4.80;53.90
12901;DHT22;6518;50.930;5.344;2023-02-26T13:22:41;4.70;54.20
12901;DHT22;6518;50.930;5.344;2023-02-26T13:25:17;4.70;55.00
12901;DHT22;6518;50.930;5.344;2023-02-26T13:27:45;4.70;56.20
12901;DHT22;6518;50.930;5.344;2023-02-26T13:30:19;4.60;56.20
12901;DHT22;6518;50.930;5.344;2023-02-26T13:32:53;4.60;56.90
12901;DHT22;6518;50.930;5.344;2023-02-26T13:35:25;4.70;56.60
12901;DHT22;6518;50.930;5.344;2023-02-26T13:37:55;4.70;56.40
12901;DHT22;6518;50.930;5.344;2023-02-26T13:40:47;4.70;55.60
12901;DHT22;6518;50.930;5.344;2023-02-26T13:43:30;4.70;54.90
12901;DHT22;6518;50.930;5.344;2023-02-26T13:46:10;4.70;54.60
12901;DHT22;6518;50.930;5.344;2023-02-26T13:48:47;4.70;54.90
12901;DHT22;6518;50.930;5.344;2023-02-26T13:51:27;4.70;55.10
12901;DHT22;6518;50.930;5.344;2023-02-26T13:53:58;4.70;54.50
12901;DHT22;6518;50.930;5.344;2023-02-26T13:56:48;4.80;54.50
12901;DHT22;6518;50.930;5.344;2023-02-26T13:59:30;4.80;53.90
12901;DHT22;6518;50.930;5.344;2023-02-26T14:02:01;4.80;53.70
12901;DHT22;6518;50.930;5.344;2023-02-26T14:04:31;4.70;53.00
12901;DHT22;6518;50.930;5.344;2023-02-26T14:07:04;4.80;53.40
12901;DHT22;6518;50.930;5.344;2023-02-26T14:09:43;4.80;53.20
12901;DHT22;6518;50.930;5.344;2023-02-26T14:12:32;4.80;53.40
12901;DHT22;6518;50.930;5.344;2023-02-26T14:15:27;4.70;53.20
12901;DHT22;6518;50.930;5.344;2023-02-26T14:18:01;4.70;53.80
12901;DHT22;6518;50.930;5.344;2023-02-26T14:20:30;4.80;54.10
12901;DHT22;6518;50.930;5.344;2023-02-26T14:26:04;4.80;53.30
12901;DHT22;6518;50.930;5.344;2023-02-26T14:28:40;4.70;53.70
12901;DHT22;6518;50.930;5.344;2023-02-26T14:31:16;4.80;53.60
12901;DHT22;6518;50.930;5.344;2023-02-26T14:33:46;4.80;53.80
12901;DHT22;6518;50.930;5.344;2023-02-26T14:36:31;4.80;54.00
12901;DHT22;6518;50.930;5.344;2023-02-26T14:39:01;4.80;52.90
12901;DHT22;6518;50.930;5.344;2023-02-26T14:41:31;4.80;52.80
12901;DHT22;6518;50.930;5.344;2023-02-26T14:44:03;4.80;52.90
12901;DHT22;6518;50.930;5.344;2023-02-26T14:46:33;4.90;53.30
12901;DHT22;6518;50.930;5.344;2023-02-26T14:49:01;4.90;53.30
12901;DHT22;6518;50.930;5.344;2023-02-26T14:51:38;4.90;53.50
12901;DHT22;6518;50.930;5.344;2023-02-26T14:54:26;4.80;53.40
12901;DHT22;6518;50.930;5.344;2023-02-26T14:57:02;4.80;53.10
12901;DHT22;6518;50.930;5.344;2023-02-26T14:59:40;4.80;52.80
12901;DHT22;6518;50.930;5.344;2023-02-26T15:02:20;4.80;52.90
12901;DHT22;6518;50.930;5.344;2023-02-26T15:05:17;4.80;52.90
12901;DHT22;6518;50.930;5.344;2023-02-26T15:08:08;4.90;52.80
12901;DHT22;6518;50.930;5.344;2023-02-26T15:10:48;4.80;52.90
12901;DHT22;6518;50.930;5.344;2023-02-26T15:13:34;4.90;53.10
12901;DHT22;6518;50.930;5.344;2023-02-26T15:16:11;4.80;53.20
12901;DHT22;6518;50.930;5.344;2023-02-26T15:18:59;4.80;52.50
12901;DHT22;6518;50.930;5.344;2023-02-26T15:21:34;4.80;52.40
12901;DHT22;6518;50.930;5.344;2023-02-26T15:24:10;4.80;53.00
12901;DHT22;6518;50.930;5.344;2023-02-26T15:26:45;4.80;53.40
12901;DHT22;6518;50.930;5.344;2023-02-26T15:29:13;4.80;53.60
12901;DHT22;6518;50.930;5.344;2023-02-26T15:31:43;4.80;53.60
12901;DHT22;6518;50.930;5.344;2023-02-26T15:34:10;4.80;53.70
12901;DHT22;6518;50.930;5.344;2023-02-26T15:36:42;4.80;54.00
12901;DHT22;6518;50.930;5.344;2023-02-26T15:39:12;4.80;54.30
12901;DHT22;6518;50.930;5.344;2023-02-26T15:41:42;4.70;54.70
12901;DHT22;6518;50.930;5.344;2023-02-26T15:44:13;4.70;54.80
12901;DHT22;6518;50.930;5.344;2023-02-26T15:46:42;4.70;54.70
12901;DHT22;6518;50.930;5.344;2023-02-26T15:49:13;4.80;54.30
12901;DHT22;6518;50.930;5.344;2023-02-26T15:51:43;4.80;54.20
12901;DHT22;6518;50.930;5.344;2023-02-26T15:54:16;4.70;54.00
12901;DHT22;6518;50.930;5.344;2023-02-26T15:56:44;4.70;53.50
12901;DHT22;6518;50.930;5.344;2023-02-26T15:59:16;4.70;53.50
12901;DHT22;6518;50.930;5.344;2023-02-26T16:01:43;4.70;53.80
12901;DHT22;6518;50.930;5.344;2023-02-26T16:04:13;4.70;53.80
12901;DHT22;6518;50.930;5.344;2023-02-26T16:06:41;4.70;54.00
12901;DHT22;6518;50.930;5.344;2023-02-26T16:09:17;4.70;53.70
12901;DHT22;6518;50.930;5.344;2023-02-26T16:11:46;4.70;54.00
12901;DHT22;6518;50.930;5.344;2023-02-26T16:14:17;4.70;54.20
12901;DHT22;6518;50.930;5.344;2023-02-26T16:16:48;4.60;54.30
12901;DHT22;6518;50.930;5.344;2023-02-26T16:19:18;4.60;54.00
12901;DHT22;6518;50.930;5.344;2023-02-26T16:21:47;4.50;54.30
12901;DHT22;6518;50.930;5.344;2023-02-26T16:24:18;4.50;54.40
12901;DHT22;6518;50.930;5.344;2023-02-26T16:26:49;4.50;54.50
12901;DHT22;6518;50.930;5.344;2023-02-26T16:29:19;4.40;54.60
12901;DHT22;6518;50.930;5.344;2023-02-26T16:31:51;4.40;54.80
12901;DHT22;6518;50.930;5.344;2023-02-26T16:34:28;4.30;55.10
12901;DHT22;6518;50.930;5.344;2023-02-26T16:36:56;4.30;55.30
12901;DHT22;6518;50.930;5.344;2023-02-26T16:39:28;4.40;55.30
12901;DHT22;6518;50.930;5.344;2023-02-26T16:42:07;4.40;55.30
12901;DHT22;6518;50.930;5.344;2023-02-26T16:44:43;4.40;55.20